Time;durP1;ratioP1;P1;durP2;ratioP2;P2;SDS_P1;SDS_P2;PMS_P1;PMS_P2;Temp;Humidity;BMP_temperature;BMP_pressure;BME280_temperature;BME280_humidity;BME280_pressure;Samples;Min_cycle;Max_cycle;Signal;HPM_P1;HPM_P2
2023/07/23 00:01:24;;;;;;;7.37;6.80;;;;;;;17.30;94.62;99970.66;5068345;28;20211;-80
2023/07/23 00:03:51;;;;;;;7.53;6.93;;;;;;;17.33;93.85;99983.69;5077196;28;20203;-80
2023/07/23 00:06:17;;;;;;;7.07;6.57;;;;;;;17.36;93.45;100001.13;5076932;28;20277;-80
2023/07/23 00:08:45;;;;;;;8.60;7.90;;;;;;;17.38;93.27;99996.63;5076905;28;20237;-80
2023/07/23 00:11:12;;;;;;;8.23;7.63;;;;;;;17.38;93.50;100001.91;5077326;28;20242;-81
2023/07/23 00:13:38;;;;;;;7.57;6.97;;;;;;;17.40;93.23;99995.63;5075903;28;20224;-80
2023/07/23 00:16:05;;;;;;;7.47;6.87;;;;;;;17.39;93.12;99993.91;5076780;28;20224;-80
2023/07/23 00:18:32;;;;;;;7.33;6.83;;;;;;;17.39;93.79;99987.78;5076864;28;20215;-80
2023/07/23 00:20:58;;;;;;;7.50;6.90;;;;;;;17.38;94.34;99979.03;5077354;28;20266;-80
2023/07/23 00:23:24;;;;;;;7.37;6.87;;;;;;;17.34;94.50;99971.34;5077280;28;20863;-80
2023/07/23 00:25:54;;;;;;;7.87;7.27;;;;;;;17.33;95.43;99951.19;5078448;28;20234;-80
2023/07/23 00:28:20;;;;;;;7.97;7.37;;;;;;;17.27;96.16;99932.13;5077888;28;20212;-80
2023/07/23 00:30:47;;;;;;;8.07;7.47;;;;;;;17.21;96.43;99921.91;5077790;28;20650;-79
2023/07/23 00:33:13;;;;;;;8.30;7.70;;;;;;;17.26;96.58;99924.28;5064962;28;20228;-80
2023/07/23 00:35:40;;;;;;;8.27;7.53;;;;;;;17.25;96.28;99918.16;5065837;28;20228;-79
2023/07/23 00:38:06;;;;;;;8.53;7.90;;;;;;;17.24;95.86;99926.16;5064948;28;20204;-80
2023/07/23 00:40:32;;;;;;;9.40;8.70;;;;;;;17.20;95.82;99933.38;5057540;28;20213;-79
2023/07/23 00:43:01;;;;;;;7.90;7.30;;;;;;;17.22;96.28;99918.34;5057450;28;20213;-79
2023/07/23 00:45:28;;;;;;;8.67;7.97;;;;;;;17.20;95.90;99920.19;5073926;28;20211;-79
2023/07/23 00:47:54;;;;;;;8.93;8.23;;;;;;;17.19;96.33;99910.59;5077887;28;20585;-79
2023/07/23 00:50:21;;;;;;;9.27;8.47;;;;;;;17.17;96.18;99911.63;5077076;28;20203;-79
2023/07/23 00:52:47;;;;;;;9.50;8.77;;;;;;;17.19;96.73;99907.09;5075927;28;20215;-79
2023/07/23 00:55:14;;;;;;;9.73;9.00;;;;;;;17.18;96.14;99908.88;5075937;28;20204;-79
2023/07/23 00:57:40;;;;;;;10.87;9.87;;;;;;;17.14;96.99;99894.16;5085760;28;20216;-80
2023/07/23 01:00:10;;;;;;;10.93;9.97;;;;;;;17.15;97.41;99884.47;5084012;28;20208;-77
2023/07/23 01:02:37;;;;;;;8.93;8.33;;;;;;;17.16;97.60;99871.19;5087667;28;20218;-79
2023/07/23 01:05:04;;;;;;;8.00;7.50;;;;;;;17.16;97.35;99868.53;5095444;28;20211;-79
2023/07/23 01:07:32;;;;;;;9.60;8.90;;;;;;;17.11;97.52;99867.97;5094585;28;20262;-79
2023/07/23 01:10:00;;;;;;;9.37;8.67;;;;;;;17.11;97.67;99860.06;5096747;28;20201;-79
2023/07/23 01:12:28;;;;;;;10.30;9.50;;;;;;;17.10;97.56;99862.78;5097229;28;20203;-79
2023/07/23 01:14:54;;;;;;;10.47;9.47;;;;;;;17.09;97.58;99854.00;5096214;28;20220;-79
2023/07/23 01:17:22;;;;;;;9.77;8.83;;;;;;;17.09;97.66;99855.81;5096958;28;20230;-79
2023/07/23 01:19:59;;;;;;;10.10;9.40;;;;;;;17.07;98.08;99848.81;5088716;28;20210;-79
2023/07/23 01:22:27;;;;;;;10.97;10.17;;;;;;;17.07;98.23;99840.06;5086133;28;20294;-79
2023/07/23 01:24:53;;;;;;;10.37;9.57;;;;;;;17.04;98.32;99834.94;5089365;28;20727;-79
2023/07/23 01:27:20;;;;;;;10.57;9.70;;;;;;;17.03;98.30;99828.84;5088065;28;20224;-79
2023/07/23 01:29:46;;;;;;;9.60;8.90;;;;;;;17.03;98.22;99820.91;5090028;28;20212;-79
2023/07/23 01:32:13;;;;;;;10.07;9.20;;;;;;;17.03;98.34;99822.72;5085725;28;20199;-80
2023/07/23 01:34:39;;;;;;;10.27;9.47;;;;;;;17.01;98.23;99825.44;5085375;28;20219;-78
2023/07/23 01:37:06;;;;;;;11.63;10.83;;;;;;;17.00;98.25;99823.72;5100499;28;20234;-80
2023/07/23 01:39:36;;;;;;;10.70;9.80;;;;;;;17.01;98.33;99820.16;5101089;28;20219;-78
2023/07/23 01:42:03;;;;;;;10.80;9.90;;;;;;;16.99;98.37;99814.13;5090653;28;20277;-78
2023/07/23 01:44:30;;;;;;;10.93;9.93;;;;;;;16.99;98.30;99824.66;5087576;28;20608;-80
2023/07/23 01:46:56;;;;;;;10.97;9.90;;;;;;;17.01;98.01;99821.94;5090068;28;20257;-79
2023/07/23 01:49:23;;;;;;;11.73;10.90;;;;;;;17.01;97.99;99816.69;5086258;28;20211;-79
2023/07/23 01:51:49;;;;;;;11.30;10.30;;;;;;;16.96;97.85;99822.19;5079246;28;20215;-77
2023/07/23 01:54:16;;;;;;;11.10;10.20;;;;;;;16.95;98.08;99815.22;5088364;28;20713;-79
2023/07/23 01:56:43;;;;;;;10.70;9.80;;;;;;;16.95;98.29;99812.59;5086095;28;20766;-79
2023/07/23 01:59:10;;;;;;;10.07;9.37;;;;;;;16.94;98.04;99808.25;5086530;28;20260;-78
2023/07/23 02:01:36;;;;;;;10.60;9.73;;;;;;;16.90;97.59;99819.03;5083217;28;20216;-79
2023/07/23 02:04:03;;;;;;;10.17;9.37;;;;;;;16.91;97.70;99821.59;5084016;28;20231;-79
2023/07/23 02:06:29;;;;;;;10.83;10.03;;;;;;;16.93;97.67;99824.16;5087142;28;20250;-78
2023/07/23 02:08:55;;;;;;;9.67;8.87;;;;;;;16.93;97.17;99832.06;5085194;28;20615;-78
2023/07/23 02:11:22;;;;;;;8.50;7.80;;;;;;;16.91;96.92;99834.78;5085165;28;20219;-79
2023/07/23 02:13:50;;;;;;;9.53;8.67;;;;;;;16.90;97.07;99840.13;5086634;28;20727;-79
2023/07/23 02:16:17;;;;;;;8.83;8.23;;;;;;;16.87;97.41;99828.81;5081057;28;20231;-79
2023/07/23 02:18:44;;;;;;;9.37;8.67;;;;;;;16.88;97.39;99827.03;5083597;28;20215;-78
2023/07/23 02:21:10;;;;;;;9.90;9.10;;;;;;;16.90;97.58;99824.31;5084570;28;20234;-79
2023/07/23 02:23:36;;;;;;;9.60;8.27;;;;;;;16.88;97.87;99812.06;5095490;28;20669;-78
2023/07/23 02:26:03;;;;;;;9.23;8.53;;;;;;;16.85;97.51;99814.88;5086318;28;20227;-79
2023/07/23 02:28:29;;;;;;;9.33;8.60;;;;;;;16.84;98.14;99807.06;5082930;28;20230;-77
2023/07/23 02:30:58;;;;;;;7.97;7.30;;;;;;;16.83;97.62;99806.22;5086387;28;20213;-80
2023/07/23 02:33:24;;;;;;;8.93;8.30;;;;;;;16.79;98.20;99795.91;5090821;28;20215;-79
2023/07/23 02:35:51;;;;;;;9.67;8.87;;;;;;;16.82;97.90;99799.22;5087965;28;20221;-79
2023/07/23 02:38:17;;;;;;;8.93;8.33;;;;;;;16.81;97.85;99802.81;5078422;28;20203;-79
2023/07/23 02:40:44;;;;;;;9.40;8.70;;;;;;;16.78;98.60;99786.28;5080206;28;20205;-79
2023/07/23 02:43:12;;;;;;;9.20;8.40;;;;;;;16.76;98.53;99780.25;5080466;28;20215;-79
2023/07/23 02:45:38;;;;;;;8.87;8.17;;;;;;;16.78;98.16;99781.84;5085675;28;20242;-80
2023/07/23 02:48:06;;;;;;;8.87;8.17;;;;;;;16.75;97.97;99784.66;5081195;28;20208;-79
2023/07/23 02:50:33;;;;;;;9.23;8.43;;;;;;;16.74;97.87;99788.22;5088264;28;20208;-79
2023/07/23 02:52:59;;;;;;;10.13;9.33;;;;;;;16.77;97.92;99793.34;5081396;28;20203;-79
2023/07/23 02:55:25;;;;;;;9.70;9.00;;;;;;;16.75;97.86;99797.84;5089572;28;20245;-78
2023/07/23 02:57:52;;;;;;;9.43;8.73;;;;;;;16.73;98.07;99790.94;5083054;28;20216;-79
2023/07/23 03:00:19;;;;;;;11.00;10.03;;;;;;;16.72;97.30;99798.00;5080810;28;20253;-78
2023/07/23 03:02:46;;;;;;;10.80;9.80;;;;;;;16.69;97.92;99795.53;5092699;28;20239;-78
2023/07/23 03:05:14;;;;;;;9.90;9.10;;;;;;;16.68;98.01;99784.13;5094421;28;20215;-79
2023/07/23 03:07:40;;;;;;;10.43;9.63;;;;;;;16.70;97.79;99778.78;5098079;28;20199;-79
2023/07/23 03:10:08;;;;;;;9.67;8.97;;;;;;;16.64;97.68;99777.34;5099738;28;20256;-79
2023/07/23 03:12:35;;;;;;;9.30;8.70;;;;;;;16.64;97.94;99779.97;5100204;28;20676;-78
2023/07/23 03:15:02;;;;;;;9.07;8.27;;;;;;;16.65;97.63;99768.50;5099564;28;20232;-78
2023/07/23 03:17:29;;;;;;;9.37;8.57;;;;;;;16.66;97.73;99767.56;5099509;28;20222;-79
2023/07/23 03:19:55;;;;;;;9.03;8.33;;;;;;;16.65;98.69;99762.41;5100113;28;20207;-79
2023/07/23 03:22:23;;;;;;;8.40;7.80;;;;;;;16.65;98.33;99747.44;5099437;28;20196;-79
2023/07/23 03:24:50;;;;;;;8.83;8.13;;;;;;;16.65;98.65;99743.94;5083476;28;20281;-79
2023/07/23 03:27:17;;;;;;;9.43;8.60;;;;;;;16.60;98.51;99743.34;5079361;28;20223;-79
2023/07/23 03:29:43;;;;;;;10.33;7.43;;;;;;;16.60;98.56;99745.97;5079516;28;20216;-79
2023/07/23 03:32:09;;;;;;;7.60;6.90;;;;;;;16.61;98.59;99734.47;5080485;28;20215;-78
2023/07/23 03:34:36;;;;;;;9.00;8.23;;;;;;;16.59;98.16;99726.69;5079179;28;20273;-78
2023/07/23 03:37:02;;;;;;;8.40;7.80;;;;;;;16.58;98.78;99722.34;5078830;28;20620;-79
2023/07/23 03:39:30;;;;;;;9.13;8.27;;;;;;;16.54;98.60;99712.91;5078835;28;20207;-79
2023/07/23 03:41:56;;;;;;;9.33;8.47;;;;;;;16.55;98.63;99725.16;5079086;28;20207;-78
2023/07/23 03:44:23;;;;;;;8.60;7.90;;;;;;;16.53;99.58;99710.34;5079129;28;20200;-80
2023/07/23 03:47:01;;;;;;;8.70;8.00;;;;;;;16.56;99.56;99703.13;5077161;28;20235;-79
2023/07/23 03:49:28;;;;;;;8.87;8.07;;;;;;;16.57;99.29;99706.59;5091047;28;20203;-79
2023/07/23 03:51:54;;;;;;;8.60;7.87;;;;;;;16.55;99.38;99701.44;5098572;28;20264;-79
2023/07/23 03:54:20;;;;;;;8.70;8.00;;;;;;;16.56;100.00;99702.28;5097649;28;20223;-80
2023/07/23 03:56:48;;;;;;;8.30;7.70;;;;;;;16.57;99.97;99704.84;5098461;28;20249;-78
2023/07/23 03:59:15;;;;;;;7.93;7.27;;;;;;;16.55;99.88;99703.22;5098011;28;20210;-80
2023/07/23 04:01:41;;;;;;;8.23;7.63;;;;;;;16.58;100.00;99703.06;5098009;28;20218;-80
2023/07/23 04:04:07;;;;;;;8.07;7.47;;;;;;;16.59;100.00;99694.19;5098241;28;20207;-79
2023/07/23 04:06:34;;;;;;;8.27;7.67;;;;;;;16.54;100.00;99683.91;5097879;28;20227;-79
2023/07/23 04:09:00;;;;;;;8.30;7.70;;;;;;;16.54;100.00;99670.75;5097130;28;20207;-79
2023/07/23 04:11:27;;;;;;;8.77;8.03;;;;;;;16.56;100.00;99666.25;5078205;28;20205;-78
2023/07/23 04:13:54;;;;;;;8.00;7.30;;;;;;;16.58;100.00;99667.00;5077596;28;20219;-79
2023/07/23 04:16:21;;;;;;;7.70;7.07;;;;;;;16.57;100.00;99669.72;5076694;28;20297;-78
2023/07/23 04:18:48;;;;;;;7.43;6.83;;;;;;;16.53;100.00;99665.56;5077860;28;20269;-80
2023/07/23 04:21:15;;;;;;;7.17;6.57;;;;;;;16.53;100.00;99666.44;5078586;28;20235;-80
2023/07/23 04:23:41;;;;;;;6.37;5.87;;;;;;;16.54;100.00;99662.00;5076895;28;20276;-79
2023/07/23 04:26:08;;;;;;;7.53;6.93;;;;;;;16.43;100.00;99660.81;5078348;28;20280;-80
2023/07/23 04:28:34;;;;;;;6.53;5.93;;;;;;;16.48;99.79;99663.19;5078941;28;20256;-79
2023/07/23 04:31:02;;;;;;;9.57;6.40;;;;;;;16.44;99.17;99674.84;5078655;28;20207;-79
2023/07/23 04:33:28;;;;;;;6.20;5.70;;;;;;;16.43;99.11;99670.50;5078362;28;20280;-79
2023/07/23 04:35:55;;;;;;;6.77;6.17;;;;;;;16.47;98.22;99683.44;5079327;28;20232;-79
2023/07/23 04:38:21;;;;;;;6.43;5.93;;;;;;;16.46;98.57;99681.72;5077074;28;20611;-80
2023/07/23 04:40:48;;;;;;;7.67;5.97;;;;;;;16.49;97.98;99688.63;5078325;28;20212;-79
2023/07/23 04:43:14;;;;;;;6.10;5.53;;;;;;;16.54;96.58;99712.06;5078231;28;20215;-79
2023/07/23 04:45:41;;;;;;;6.23;5.73;;;;;;;16.55;96.57;99727.78;5077251;28;20239;-80
2023/07/23 04:48:10;;;;;;;7.10;5.80;;;;;;;16.55;97.30;99719.00;5078370;28;20210;-80
2023/07/23 04:50:37;;;;;;;5.57;5.07;;;;;;;16.57;98.17;99688.16;5078847;28;20245;-80
2023/07/23 04:53:03;;;;;;;5.43;5.00;;;;;;;16.50;97.06;99708.75;5076981;28;20211;-79
2023/07/23 04:55:29;;;;;;;6.83;5.77;;;;;;;16.53;97.54;99705.06;5078361;28;21072;-78
2023/07/23 04:57:56;;;;;;;5.40;4.90;;;;;;;16.51;97.54;99699.91;5077778;28;20298;-80
2023/07/23 05:00:23;;;;;;;6.37;5.30;;;;;;;16.52;97.67;99688.44;5077557;28;20269;-80
2023/07/23 05:02:49;;;;;;;5.50;5.07;;;;;;;16.55;97.52;99692.66;5078357;28;20246;-79
2023/07/23 05:05:17;;;;;;;5.63;5.13;;;;;;;16.57;97.62;99686.41;5078443;28;20204;-81
2023/07/23 05:07:43;;;;;;;5.30;4.90;;;;;;;16.57;97.45;99691.66;5077096;28;20725;-79
2023/07/23 05:10:11;;;;;;;5.53;5.03;;;;;;;16.60;97.44;99677.47;5078470;28;20217;-81
2023/07/23 05:12:39;;;;;;;6.70;6.00;;;;;;;16.61;98.01;99680.03;5077885;28;20234;-80
2023/07/23 05:15:13;;;;;;;6.27;5.67;;;;;;;16.62;98.50;99665.06;5078472;28;20256;-79
2023/07/23 05:17:40;;;;;;;5.13;4.73;;;;;;;16.56;99.13;99655.69;5092860;28;20272;-80
2023/07/23 05:20:09;;;;;;;5.07;4.67;;;;;;;16.58;98.97;99653.00;5078904;28;20207;-79
2023/07/23 05:22:39;;;;;;;5.50;5.10;;;;;;;16.57;99.59;99641.59;5081826;28;20247;-79
2023/07/23 05:25:06;;;;;;;5.40;4.90;;;;;;;16.52;99.96;99633.09;5080157;28;20211;-80
2023/07/23 05:27:33;;;;;;;5.73;5.30;;;;;;;16.54;100.00;99628.59;5077639;28;20223;-80
2023/07/23 05:29:59;;;;;;;5.37;4.97;;;;;;;16.56;100.00;99626.72;5078037;28;20212;-79
2023/07/23 05:32:25;;;;;;;5.97;5.47;;;;;;;16.52;100.00;99627.84;5077513;28;20199;-79
2023/07/23 05:34:53;;;;;;;5.70;5.20;;;;;;;16.52;100.00;99600.66;5077401;28;20232;-80
2023/07/23 05:37:19;;;;;;;6.13;5.57;;;;;;;16.39;100.00;99597.84;5076507;28;20270;-79
2023/07/23 05:39:48;;;;;;;5.93;5.43;;;;;;;16.44;100.00;99590.53;5077699;28;20341;-80
2023/07/23 05:42:15;;;;;;;5.77;5.27;;;;;;;16.48;100.00;99581.53;5077740;28;20265;-80
2023/07/23 05:44:41;;;;;;;5.63;5.13;;;;;;;16.53;100.00;99573.34;5076432;28;20253;-78
2023/07/23 05:47:07;;;;;;;4.97;4.63;;;;;;;16.58;100.00;99572.16;5091271;22;20235;-81
2023/07/23 05:49:34;;;;;;;5.47;5.03;;;;;;;16.61;100.00;99573.75;5077264;28;20227;-82
2023/07/23 05:52:00;;;;;;;5.30;4.90;;;;;;;16.63;100.00;99562.22;5077090;28;20218;-82
2023/07/23 05:54:27;;;;;;;5.30;4.83;;;;;;;16.63;100.00;99562.22;5072551;28;20599;-81
2023/07/23 05:56:55;;;;;;;5.53;5.13;;;;;;;16.60;100.00;99559.75;5070461;28;20239;-80
2023/07/23 05:59:21;;;;;;;6.20;5.60;;;;;;;16.60;100.00;99562.38;5075656;28;20214;-80
2023/07/23 06:01:48;;;;;;;5.97;5.47;;;;;;;16.64;100.00;99563.88;5070444;28;20222;-80
2023/07/23 06:04:14;;;;;;;5.77;5.37;;;;;;;16.72;100.00;99568.72;5075250;28;20208;-80
2023/07/23 06:06:41;;;;;;;5.97;5.57;;;;;;;16.79;100.00;99569.22;5074486;28;20236;-80
2023/07/23 06:09:08;;;;;;;6.20;5.40;;;;;;;16.87;100.00;99546.75;5074880;28;20207;-81
2023/07/23 06:11:34;;;;;;;6.23;5.63;;;;;;;16.96;100.00;99540.09;5077484;28;20279;-79
2023/07/23 06:14:02;;;;;;;6.10;5.70;;;;;;;17.02;100.00;99560.81;5079327;28;20208;-79
2023/07/23 06:16:30;;;;;;;5.57;5.17;;;;;;;17.15;100.00;99560.09;5079080;28;20299;-79
2023/07/23 06:18:57;;;;;;;6.00;5.50;;;;;;;17.20;97.88;99605.47;5080121;28;20231;-78
2023/07/23 06:21:23;;;;;;;7.33;5.47;;;;;;;17.27;97.06;99627.94;5080029;28;20233;-79
2023/07/23 06:23:49;;;;;;;5.33;4.77;;;;;;;17.29;94.69;99652.41;5079802;28;20200;-79
2023/07/23 06:26:16;;;;;;;5.50;5.10;;;;;;;17.38;94.43;99680.91;5079772;28;20234;-80
2023/07/23 06:28:42;;;;;;;5.97;5.53;;;;;;;17.55;95.22;99671.97;5079841;28;20209;-80
2023/07/23 06:31:10;;;;;;;5.73;5.20;;;;;;;17.67;93.14;99691.50;5079221;28;20728;-79
2023/07/23 06:33:37;;;;;;;6.13;5.63;;;;;;;17.77;92.58;99710.25;5080154;28;20207;-81
2023/07/23 06:36:04;;;;;;;5.40;4.90;;;;;;;17.85;91.47;99729.16;5077511;28;20234;-79
2023/07/23 06:38:30;;;;;;;5.07;4.67;;;;;;;17.91;91.12;99735.84;5075682;28;20209;-79
2023/07/23 06:40:57;;;;;;;5.37;4.97;;;;;;;17.88;87.32;99815.25;5075888;28;20603;-79
2023/07/23 06:43:24;;;;;;;5.07;4.60;;;;;;;17.88;86.06;99841.66;5075744;28;20204;-80
2023/07/23 06:45:52;;;;;;;4.30;3.97;;;;;;;17.83;81.59;99929.03;5076011;28;20200;-79
2023/07/23 06:48:23;;;;;;;5.03;4.60;;;;;;;17.89;81.67;99965.66;5096219;28;20211;-79
2023/07/23 06:50:49;;;;;;;4.70;4.40;;;;;;;17.99;84.26;99931.66;5095335;28;20652;-81
2023/07/23 06:53:16;;;;;;;5.97;4.63;;;;;;;17.95;84.64;99901.94;5095641;28;20593;-81
2023/07/23 06:55:58;;;;;;;5.57;5.07;;;;;;;17.93;82.22;99927.59;5095879;28;20269;-76
2023/07/23 06:58:25;;;;;;;5.57;4.27;;;;;;;17.98;82.28;99936.09;5095418;28;20549;-77
2023/07/23 07:00:51;;;;;;;4.83;4.13;;;;;;;17.93;80.16;99958.44;5103029;28;20203;-79
2023/07/23 07:03:17;;;;;;;4.73;4.33;;;;;;;18.03;82.42;99962.22;5105228;28;20214;-81
2023/07/23 07:05:45;;;;;;;4.57;4.27;;;;;;;18.18;83.63;99927.00;5104940;28;20209;-82
2023/07/23 07:08:12;;;;;;;6.40;4.93;;;;;;;18.25;85.45;99878.16;5103693;28;20811;-80
2023/07/23 07:10:38;;;;;;;4.70;4.13;;;;;;;18.26;82.17;99914.19;5103931;28;20209;-79
2023/07/23 07:13:08;;;;;;;12.80;5.27;;;;;;;18.37;84.16;99884.47;5100900;28;20212;-81
2023/07/23 07:15:34;;;;;;;4.33;4.03;;;;;;;18.44;84.33;99869.97;5103049;28;20231;-81
2023/07/23 07:18:01;;;;;;;4.67;4.37;;;;;;;18.47;83.01;99892.69;5103276;28;20226;-82
2023/07/23 07:20:27;;;;;;;4.93;4.53;;;;;;;18.59;83.37;99875.25;5104452;28;20204;-81
2023/07/23 07:22:55;;;;;;;4.60;4.20;;;;;;;18.68;81.80;99901.13;5102863;28;20198;-80
2023/07/23 07:25:21;;;;;;;4.77;4.37;;;;;;;18.71;84.00;99871.88;5105582;28;20202;-81
2023/07/23 07:27:48;;;;;;;4.97;4.57;;;;;;;18.80;84.41;99873.13;5108217;28;20285;-82
2023/07/23 07:30:14;;;;;;;5.30;4.83;;;;;;;18.80;84.11;99830.81;5106240;28;20207;-81
2023/07/23 07:32:40;;;;;;;5.03;4.63;;;;;;;18.85;82.88;99849.88;5105724;28;20203;-81
2023/07/23 07:35:07;;;;;;;5.93;4.00;;;;;;;18.92;81.81;99890.00;5104333;28;20654;-81
2023/07/23 07:37:34;;;;;;;4.40;4.10;;;;;;;18.91;79.27;99934.13;5103635;28;20349;-81
2023/07/23 07:40:02;;;;;;;4.17;3.80;;;;;;;18.95;79.11;99946.22;5105621;28;20214;-80
2023/07/23 07:42:28;;;;;;;4.50;4.20;;;;;;;19.03;79.07;99961.63;5102221;28;20203;-81
2023/07/23 07:44:55;;;;;;;4.97;4.03;;;;;;;19.11;76.51;100017.56;5075274;28;20231;-80
2023/07/23 07:47:21;;;;;;;5.80;3.83;;;;;;;19.24;77.22;100004.41;5076537;28;20231;-78
2023/07/23 07:49:51;;;;;;;4.77;4.37;;;;;;;19.24;78.11;100029.06;5081444;28;20207;-80
2023/07/23 07:52:18;;;;;;;4.20;3.90;;;;;;;19.32;78.26;99980.94;5096760;28;20208;-80
2023/07/23 07:54:44;;;;;;;4.40;4.00;;;;;;;19.42;77.15;100008.56;5096319;28;20210;-81
2023/07/23 07:57:13;;;;;;;4.50;4.20;;;;;;;19.45;76.12;100034.00;5096858;28;20231;-83
2023/07/23 07:59:40;;;;;;;4.60;4.20;;;;;;;19.54;76.99;100017.50;5088257;28;20268;-82
2023/07/23 08:02:08;;;;;;;4.43;3.63;;;;;;;19.50;73.28;100039.84;5097632;28;20207;-83
2023/07/23 08:04:35;;;;;;;4.90;4.50;;;;;;;19.63;77.23;100021.38;5099380;28;20200;-82
2023/07/23 08:07:02;;;;;;;7.20;3.97;;;;;;;19.69;78.68;99973.34;5111523;28;20227;-82
2023/07/23 08:09:30;;;;;;;4.33;3.97;;;;;;;19.74;78.46;99960.69;5099155;28;20261;-83
2023/07/23 08:11:57;;;;;;;4.60;3.90;;;;;;;19.76;81.24;99883.75;5098070;28;20200;-83
2023/07/23 08:14:25;;;;;;;4.70;4.23;;;;;;;19.78;82.76;99863.31;5079140;28;20263;-83
2023/07/23 08:16:54;;;;;;;4.87;3.90;;;;;;;19.76;76.35;99979.97;5077131;28;20259;-84
2023/07/23 08:19:20;;;;;;;4.73;4.07;;;;;;;19.90;80.27;99938.47;5076995;28;20208;-84
2023/07/23 08:21:47;;;;;;;4.10;3.80;;;;;;;19.86;74.12;100003.19;5077761;28;20208;-83
2023/07/23 08:24:14;;;;;;;5.37;4.07;;;;;;;19.89;71.77;100069.25;5076806;28;20560;-82
2023/07/23 08:26:42;;;;;;;4.20;3.90;;;;;;;19.99;71.48;100094.19;5097268;28;20212;-83
2023/07/23 08:29:10;;;;;;;4.00;3.70;;;;;;;20.11;71.06;100125.19;5096530;28;20216;-83
2023/07/23 08:31:39;;;;;;;4.13;3.77;;;;;;;20.21;71.73;100146.66;5097380;28;20208;-80
2023/07/23 08:34:06;;;;;;;4.43;3.97;;;;;;;20.31;71.17;100153.06;5095435;28;20210;-80
2023/07/23 08:36:33;;;;;;;4.10;3.73;;;;;;;20.45;72.80;100120.38;5096593;28;20224;-81
2023/07/23 08:39:00;;;;;;;5.27;4.03;;;;;;;20.51;70.66;100167.69;5094048;28;20203;-82
2023/07/23 08:41:37;;;;;;;3.90;3.60;;;;;;;20.58;69.50;100208.78;5086589;28;20626;-82
2023/07/23 08:44:55;;;;;;;4.20;3.80;;;;;;;20.65;68.06;100246.41;5082819;28;20203;-84
2023/07/23 08:47:23;;;;;;;4.73;3.90;;;;;;;20.61;65.71;100287.34;5095815;28;20876;-78
2023/07/23 08:49:53;;;;;;;4.67;3.93;;;;;;;20.76;67.77;100278.41;5096893;28;20597;-82
2023/07/23 08:52:22;;;;;;;4.47;4.00;;;;;;;20.82;68.31;100250.63;5099776;28;20200;-82
2023/07/23 08:54:48;;;;;;;4.40;3.43;;;;;;;20.84;66.38;100240.78;5104284;28;20208;-82
2023/07/23 08:57:15;;;;;;;3.40;3.20;;;;;;;20.76;63.15;100304.09;5099811;28;20236;-82
2023/07/23 08:59:43;;;;;;;4.10;3.80;;;;;;;20.84;64.81;100317.72;5088062;28;20208;-83
2023/07/23 09:02:12;;;;;;;3.40;3.20;;;;;;;20.81;63.69;100339.13;5076003;28;20208;-83
2023/07/23 09:04:39;;;;;;;3.33;2.73;;;;;;;20.90;63.80;100345.66;5073778;28;20204;-83
2023/07/23 09:07:10;;;;;;;3.90;2.87;;;;;;;20.92;61.73;100391.53;5076042;28;20220;-83
2023/07/23 09:09:36;;;;;;;3.13;2.83;;;;;;;20.93;60.58;100407.34;5076452;28;20216;-84
2023/07/23 09:12:03;;;;;;;3.83;2.80;;;;;;;20.98;59.96;100460.97;5076702;28;20208;-84
2023/07/23 09:14:30;;;;;;;2.97;2.70;;;;;;;21.07;59.12;100472.84;5075532;28;20205;-82
2023/07/23 09:16:57;;;;;;;3.23;2.73;;;;;;;21.15;60.61;100491.81;5088383;28;20376;-81
2023/07/23 09:19:25;;;;;;;2.70;2.50;;;;;;;21.07;57.05;100511.78;5088395;28;20212;-81
2023/07/23 09:21:56;;;;;;;2.67;2.47;;;;;;;21.08;56.14;100554.16;5076271;28;20211;-82
2023/07/23 09:24:23;;;;;;;3.50;3.10;;;;;;;21.16;57.07;100583.75;5075356;28;20769;-82
2023/07/23 09:26:49;;;;;;;2.70;2.50;;;;;;;21.24;57.33;100572.66;5075968;28;20216;-83
2023/07/23 09:29:16;;;;;;;3.70;2.83;;;;;;;21.22;58.84;100537.38;5076470;28;20212;-82
2023/07/23 09:31:44;;;;;;;3.73;2.67;;;;;;;21.26;57.81;100575.22;5075987;28;20849;-83
2023/07/23 09:34:10;;;;;;;2.90;2.60;;;;;;;21.28;58.30;100544.13;5076633;28;20686;-83
2023/07/23 09:36:37;;;;;;;2.73;2.10;;;;;;;21.27;53.83;100628.25;5075441;28;20235;-83
2023/07/23 09:39:06;;;;;;;3.03;2.57;;;;;;;21.32;53.23;100646.53;5078481;28;20204;-82
2023/07/23 09:41:35;;;;;;;2.90;2.70;;;;;;;21.37;54.00;100703.75;5092236;28;20203;-80
2023/07/23 09:44:05;;;;;;;2.40;2.20;;;;;;;21.39;53.50;100701.00;5093635;28;20256;-83
2023/07/23 09:46:32;;;;;;;2.13;2.00;;;;;;;21.34;54.84;100695.94;5097377;28;20231;-83
2023/07/23 09:48:58;;;;;;;3.97;2.40;;;;;;;21.32;53.28;100723.56;5094066;28;20199;-82
2023/07/23 09:51:25;;;;;;;3.00;2.70;;;;;;;21.32;51.84;100732.38;5092382;28;20560;-84
2023/07/23 09:53:52;;;;;;;2.20;2.07;;;;;;;21.36;52.07;100741.84;5094047;28;20204;-82
2023/07/23 09:56:23;;;;;;;2.57;2.37;;;;;;;21.44;51.44;100757.38;5093930;28;20737;-81
2023/07/23 09:58:51;;;;;;;3.07;2.40;;;;;;;21.57;51.76;100744.22;5091350;28;20204;-83
2023/07/23 10:01:19;;;;;;;2.90;2.40;;;;;;;21.57;51.83;100745.09;5091632;28;20347;-83
2023/07/23 10:03:47;;;;;;;2.40;2.20;;;;;;;21.70;54.21;100707.13;5091371;28;20207;-82
2023/07/23 10:06:15;;;;;;;3.53;2.53;;;;;;;21.69;54.08;100666.44;5079467;28;20247;-83
2023/07/23 10:08:43;;;;;;;4.27;2.50;;;;;;;21.66;50.44;100708.28;5095891;28;20214;-80
2023/07/23 10:11:11;;;;;;;2.60;2.40;;;;;;;21.70;50.73;100761.13;5097426;28;20662;-82
2023/07/23 10:13:40;;;;;;;2.53;2.33;;;;;;;21.76;50.06;100782.03;5098520;28;20204;-81
2023/07/23 10:16:10;;;;;;;3.03;2.80;;;;;;;21.79;50.23;100803.09;5099113;28;20317;-81
2023/07/23 10:18:41;;;;;;;3.73;2.93;;;;;;;21.94;51.63;100788.03;5098289;28;20694;-80
2023/07/23 10:21:08;;;;;;;3.07;2.80;;;;;;;21.94;50.58;100801.31;5099559;28;20231;-83
2023/07/23 10:23:38;;;;;;;2.80;2.60;;;;;;;22.02;50.32;100782.22;5098094;28;20200;-80
2023/07/23 10:26:22;;;;;;;3.53;2.80;;;;;;;22.15;51.19;100753.09;5099734;28;20212;-82
2023/07/23 10:28:52;;;;;;;2.93;2.40;;;;;;;22.18;50.31;100772.38;5102260;28;20207;-81
2023/07/23 10:31:24;;;;;;;2.63;2.43;;;;;;;22.31;49.90;100779.59;5102908;28;20204;-83
2023/07/23 10:33:51;;;;;;;2.93;2.73;;;;;;;22.35;49.85;100771.34;5100153;28;20242;-81
2023/07/23 10:36:22;;;;;;;2.93;2.73;;;;;;;22.49;51.62;100743.84;5098893;28;20263;-84
2023/07/23 10:39:05;;;;;;;3.27;2.77;;;;;;;22.47;50.34;100771.53;5094093;28;20678;-81
2023/07/23 10:41:51;;;;;;;3.10;2.90;;;;;;;22.37;49.41;100749.97;5078304;28;20205;-82
2023/07/23 10:44:23;;;;;;;3.10;2.87;;;;;;;22.43;50.59;100744.25;5090715;28;20290;-79
2023/07/23 10:46:50;;;;;;;3.03;2.77;;;;;;;22.50;52.12;100729.63;5082719;28;20233;-82
2023/07/23 10:49:21;;;;;;;11.53;2.60;;;;;;;22.31;51.05;100726.41;5089379;28;20204;-81
2023/07/23 10:51:50;;;;;;;3.60;2.90;;;;;;;22.34;52.15;100723.56;5088091;28;20646;-82
2023/07/23 10:54:18;;;;;;;2.93;2.73;;;;;;;22.34;53.11;100691.66;5109811;28;20215;-84
2023/07/23 10:56:44;;;;;;;2.90;2.70;;;;;;;22.10;51.51;100705.53;5108479;28;20228;-80
2023/07/23 10:59:15;;;;;;;3.30;3.00;;;;;;;21.95;51.24;100717.13;5095190;28;20253;-81
2023/07/23 11:01:44;;;;;;;3.00;2.80;;;;;;;22.04;52.70;100697.94;5075620;28;20201;-81
2023/07/23 11:04:13;;;;;;;3.53;2.97;;;;;;;22.07;54.53;100649.03;5074009;28;20556;-82
2023/07/23 11:06:55;;;;;;;3.10;2.90;;;;;;;21.87;52.04;100667.09;5074844;28;20779;-81
2023/07/23 11:09:26;;;;;;;2.70;2.50;;;;;;;21.83;51.96;100668.22;5093977;28;20606;-81
2023/07/23 11:11:53;;;;;;;3.53;2.90;;;;;;;21.87;53.82;100643.16;5092916;28;20216;-81
2023/07/23 11:14:21;;;;;;;2.30;2.20;;;;;;;21.79;53.31;100632.16;5094156;28;20214;-81
2023/07/23 11:16:51;;;;;;;2.83;2.63;;;;;;;21.88;55.22;100598.84;5093635;28;20281;-81
2023/07/23 11:19:19;;;;;;;3.40;3.10;;;;;;;21.88;54.41;100591.72;5087885;28;20211;-81
2023/07/23 11:21:50;;;;;;;2.97;2.43;;;;;;;22.00;54.57;100572.34;5073761;28;20204;-82
2023/07/23 11:24:17;;;;;;;3.07;2.77;;;;;;;22.04;53.60;100598.69;5088818;28;20249;-79
2023/07/23 11:26:44;;;;;;;3.73;2.37;;;;;;;22.09;53.62;100608.09;5095588;28;20258;-83
2023/07/23 11:29:10;;;;;;;3.23;2.93;;;;;;;22.18;54.51;100585.38;5098662;28;20217;-82
2023/07/23 11:31:37;;;;;;;9.80;2.30;;;;;;;22.02;52.27;100626.25;5099237;28;20624;-82